Latest Weather Observations for Nhill Aerodrome

IDV60801

Issued at 4:05 pm EST Thursday 24 April 2014 (issued every 30 minutes, with the page automatically refreshed every 10 minutes)

About weather observations | Map of weather stations | Latest weather observations for VIC | Other Formats
Station Details ID: 078015 Name: NHILL AERODROME Lat: -36.31 Lon: 141.65 Height: 138.9 m
Data from the previous 72 hours. | See also: Recent months at Nhill Aerodrome
Date/Time
EST
Temp
°C
App
Temp
°C
Dew
Point
Rel
Hum
%
Delta-T
°C
Wind Press
QNH
hPa
Press
MSL
hPa
Rain
since 9 am
mm
Dir
 
Spd
km/h
Gust
km/h
Spd
kts
Gust
kts
24/04:00pm 18.0 13.6 0.6 31 7.7 S 13 22 7 12 1017.7 - 0.0
24/03:30pm 18.2 14.0 1.7 33 7.5 SSW 13 24 7 13 1017.7 - 0.0
24/03:00pm 18.3 14.2 2.2 34 7.4 SSE 13 20 7 11 1017.5 1017.4 0.0
24/02:30pm 18.0 13.1 1.9 34 7.3 S 17 26 9 14 1017.4 - 0.0
24/02:00pm 18.1 13.0 3.2 37 7.0 SSW 19 30 10 16 1017.3 - 0.0
24/01:30pm 17.8 13.0 2.5 36 7.0 S 17 26 9 14 1017.4 - 0.0
24/01:00pm 17.4 12.2 3.3 39 6.6 SSW 20 35 11 19 1017.6 - 0.0
24/12:30pm 17.2 12.1 3.1 39 6.5 SW 19 33 10 18 1017.9 - 0.0
24/12:00pm 17.1 11.1 3.1 39 6.5 S 24 35 13 19 1018.0 1017.9 0.0
24/11:30am 16.4 10.1 3.5 42 6.0 S 26 41 14 22 1018.2 - 0.0
24/11:00am 16.1 9.9 6.3 52 4.8 SSW 28 41 15 22 1018.0 - 0.0
24/10:30am 15.2 8.1 6.5 56 4.3 SSW 33 41 18 22 1017.8 - 0.0
24/10:00am 15.8 9.8 8.5 62 3.7 S 30 39 16 21 1017.6 - 0.0
24/09:30am 14.8 8.9 9.2 69 2.9 SSW 30 35 16 19 1017.5 - 0.0
24/09:00am 14.3 9.2 10.5 78 2.0 SSW 28 33 15 18 1017.3 1017.2 0.0
24/08:30am 13.4 8.4 10.8 84 1.4 S 28 37 15 20 1016.8 - 0.0
24/08:00am 13.1 8.9 11.2 88 1.0 WSW 24 32 13 17 1015.9 - 0.0
24/07:30am 13.3 9.0 10.8 85 1.3 WSW 24 30 13 16 1015.1 - 0.0
24/07:00am 13.3 9.4 10.7 84 1.4 W 22 30 12 16 1014.7 - 0.0
24/06:30am 13.0 9.4 10.4 84 1.4 WNW 20 26 11 14 1014.3 - 0.0
24/06:00am 12.7 9.2 10.1 84 1.3 WNW 19 28 10 15 1014.2 1014.1 0.0
24/05:30am 11.5 9.1 8.7 83 1.4 WNW 11 17 6 9 1013.8 - 0.0
24/05:00am 11.5 8.3 8.5 82 1.5 WNW 15 17 8 9 1013.4 - 0.0
24/04:30am 10.4 7.1 6.5 77 1.8 NW 13 15 7 8 1012.8 - 0.0
24/04:00am 9.4 5.3 4.4 71 2.2 NNW 15 17 8 9 1013.0 - 0.0
24/03:30am 8.5 4.9 2.9 68 2.4 NW 11 13 6 7 1013.1 - 0.0
24/03:00am 9.5 5.6 3.3 65 2.7 NNW 13 15 7 8 1013.1 1013.0 0.0
24/02:30am 9.7 5.7 3.0 63 2.9 NNW 13 15 7 8 1013.4 - 0.0
24/02:00am 9.1 5.5 2.7 64 2.7 NNW 11 13 6 7 1013.6 - 0.0
24/01:30am 9.9 6.3 2.7 61 3.1 NNW 11 15 6 8 1013.6 - 0.0
24/01:00am 10.1 6.4 2.5 59 3.3 NNW 11 13 6 7 1013.6 - 0.0
24/12:30am 10.1 6.0 2.2 58 3.4 NNW 13 15 7 8 1013.7 - 0.0
24/12:00am 10.1 6.3 1.7 56 3.5 NNW 11 13 6 7 1013.8 1013.7 0.0
 
Date/Time
EST
Temp
°C
App
Temp
°C
Dew
Point
Rel
Hum
%
Delta-T
°C
Wind Press
QNH
hPa
Press
MSL
hPa
Rain
since 9 am
mm
Dir
 
Spd
km/h
Gust
km/h
Spd
kts
Gust
kts
23/11:30pm 11.1 7.3 1.9 53 3.9 NNW 11 15 6 8 1013.9 - 0.0
23/11:00pm 12.1 7.9 1.7 49 4.5 NNW 13 15 7 8 1014.1 - 0.0
23/10:30pm 12.9 9.1 1.6 46 4.9 NNW 11 15 6 8 1014.2 - 0.0
23/10:00pm 13.6 9.7 1.3 43 5.3 NNW 11 15 6 8 1014.3 - 0.0
23/09:30pm 13.4 9.5 1.4 44 5.2 NNW 11 15 6 8 1014.4 - 0.0
23/09:00pm 13.6 10.3 2.2 46 5.0 N 9 13 5 7 1014.4 1014.3 0.0
23/08:30pm 13.8 10.9 2.4 46 5.1 NNW 7 9 4 5 1014.6 - 0.0
23/08:00pm 14.0 10.7 2.6 46 5.1 NNW 9 11 5 6 1014.7 - 0.0
23/07:30pm 14.4 11.5 2.6 45 5.3 NNW 7 11 4 6 1014.5 - 0.0
23/07:00pm 14.7 11.4 2.6 44 5.4 NNW 9 11 5 6 1014.4 - 0.0
23/06:30pm 15.0 11.3 2.2 42 5.7 NW 11 13 6 7 1014.2 - 0.0
23/06:00pm 16.4 12.6 1.7 37 6.6 WNW 11 15 6 8 1014.0 1013.9 0.0
23/05:30pm 18.3 13.7 1.3 32 7.7 NW 15 19 8 10 1013.8 - 0.0
23/05:00pm 18.8 13.8 1.3 31 7.9 W 17 24 9 13 1013.7 - 0.0
23/04:30pm 19.3 14.7 1.3 30 8.2 W 15 20 8 11 1013.8 - 0.0
23/04:00pm 19.2 13.8 1.2 30 8.1 W 19 26 10 14 1014.2 - 0.0
23/03:30pm 18.9 14.4 1.9 32 7.8 WNW 15 22 8 12 1014.3 - 0.0
23/03:00pm 18.6 13.9 3.3 36 7.2 NW 17 30 9 16 1014.6 1014.5 0.0
23/02:30pm 18.5 13.0 1.9 33 7.6 WNW 20 32 11 17 1014.8 - 0.0
23/02:00pm 18.3 13.2 0.9 31 7.8 WNW 17 24 9 13 1015.0 - 0.0
23/01:30pm 18.1 13.8 3.2 37 7.0 W 15 30 8 16 1015.4 - 0.0
23/01:00pm 18.3 14.8 5.5 43 6.3 W 13 19 7 10 1015.9 - 0.0
23/12:30pm 17.2 13.7 5.5 46 5.7 W 13 20 7 11 1016.4 - 0.0
23/12:00pm 16.8 13.9 6.6 51 5.0 WSW 11 15 6 8 1016.7 1016.6 0.0
23/11:30am 16.6 13.7 6.4 51 5.0 W 11 20 6 11 1017.3 - 0.0
23/11:00am 15.8 13.0 6.8 55 4.4 W 11 17 6 9 1017.8 - 0.0
23/10:30am 14.9 12.8 6.5 57 4.1 W 7 13 4 7 1018.0 - 0.0
23/10:00am 13.9 12.4 8.5 70 2.7 NNW 6 9 3 5 1018.1 - 0.0
23/09:30am 12.7 13.0 10.8 88 1.0 CALM 0 0 0 0 1018.2 - 0.0
23/09:00am 10.3 10.1 8.9 91 0.7 CALM 0 0 0 0 1018.3 1018.2 0.0
23/08:30am 7.8 7.0 6.6 92 0.6 CALM 0 4 0 2 1018.1 - 0.0
23/08:00am 6.5 5.4 5.1 91 0.6 CALM 0 0 0 0 1017.8 - 0.0
23/07:30am 5.3 4.0 4.0 91 0.6 CALM 0 0 0 0 1017.5 - 0.0
23/07:00am 4.2 1.5 2.7 90 0.6 S 6 7 3 4 1017.7 - 0.0
23/06:30am 5.2 3.8 3.7 90 0.6 CALM 0 0 0 0 1017.4 - 0.0
23/06:00am 5.9 4.6 4.2 89 0.7 CALM 0 0 0 0 1017.2 1017.1 0.0
23/05:30am 6.5 5.3 4.8 89 0.7 CALM 0 0 0 0 1017.2 - 0.0
23/05:00am 6.3 5.1 4.5 88 0.8 CALM 0 0 0 0 1017.1 - 0.0
23/04:30am 6.6 5.4 4.8 88 0.8 CALM 0 0 0 0 1016.9 - 0.0
23/04:00am 6.8 4.9 5.0 88 0.8 S 4 6 2 3 1017.1 - 0.0
23/03:30am 6.8 4.5 5.0 88 0.8 S 6 7 3 4 1017.3 - 0.0
23/03:00am 6.9 4.4 4.9 87 0.9 S 7 9 4 5 1017.4 1017.3 0.0
23/02:30am 7.5 5.3 5.3 86 1.0 S 6 7 3 4 1017.3 - 0.0
23/02:00am 7.7 5.4 5.5 86 1.0 S 7 7 4 4 1017.3 - 0.0
23/01:30am 8.0 5.3 5.5 84 1.1 S 9 9 5 5 1017.5 - 0.0
23/01:00am 8.1 5.4 5.6 84 1.1 S 9 11 5 6 1017.6 - 0.0
23/12:30am 8.6 5.5 5.7 82 1.3 S 11 13 6 7 1017.7 - 0.0
23/12:00am 9.0 7.3 5.9 81 1.4 SSW 4 7 2 4 1017.8 1017.7 0.0
 
Date/Time
EST
Temp
°C
App
Temp
°C
Dew
Point
Rel
Hum
%
Delta-T
°C
Wind Press
QNH
hPa
Press
MSL
hPa
Rain
since 9 am
mm
Dir
 
Spd
km/h
Gust
km/h
Spd
kts
Gust
kts
22/11:30pm 9.8 6.1 6.3 79 1.6 S 15 19 8 10 1017.9 - 0.0
22/11:00pm 9.4 6.4 5.9 79 1.6 S 11 13 6 7 1018.2 - 0.0
22/10:30pm 9.8 7.2 6.0 77 1.8 SSW 9 11 5 6 1018.2 - 0.0
22/10:00pm 10.3 7.3 5.9 74 2.0 SSW 11 15 6 8 1018.1 - 0.0
22/09:30pm 11.0 7.9 5.7 70 2.5 SSW 11 13 6 7 1018.1 - 0.0
22/09:00pm 11.7 8.7 5.8 67 2.8 SSW 11 15 6 8 1017.8 1017.7 0.0
22/08:30pm 12.9 10.3 6.0 63 3.3 S 9 11 5 6 1017.7 - 0.0
22/08:00pm 12.5 9.9 5.9 64 3.1 SSE 9 11 5 6 1017.5 - 0.0
22/07:30pm 13.5 10.1 5.9 60 3.6 SSW 13 15 7 8 1017.2 - 0.0
22/07:00pm 14.9 10.8 6.2 56 4.2 SSW 17 20 9 11 1016.9 - 0.0
22/06:30pm 16.0 11.6 6.4 53 4.7 SSW 19 24 10 13 1016.5 - 0.0
22/06:00pm 16.7 12.8 7.1 53 4.8 SSW 17 20 9 11 1016.1 1016.0 0.0
22/05:30pm 17.8 14.3 7.2 50 5.4 SW 15 20 8 11 1015.8 - 0.0
22/05:00pm 18.6 14.3 7.1 47 5.8 SSW 19 24 10 13 1015.6 - 0.0
22/04:30pm 19.0 14.8 7.4 47 5.9 SW 19 26 10 14 1015.4 - 0.0
22/04:00pm 19.4 15.2 7.5 46 6.1 SW 19 26 10 14 1015.3 - 0.0
22/03:30pm 19.1 13.8 6.9 45 6.2 SW 24 32 13 17 1015.3 - 0.0
22/03:00pm 19.9 15.7 8.3 47 6.1 SSW 20 30 11 16 1014.9 1014.8 0.0
22/02:30pm 20.0 15.8 7.4 44 6.5 SW 19 28 10 15 1014.6 - 0.0
22/02:00pm 20.1 15.9 8.4 47 6.1 SW 20 30 11 16 1014.5 - 0.0
22/01:30pm 20.4 15.9 10.2 52 5.5 SW 24 32 13 17 1014.6 - 0.0
22/01:00pm 19.4 15.7 11.4 60 4.4 SW 22 33 12 18 1014.9 - 0.0
22/12:30pm 19.3 15.8 12.3 64 3.9 SSW 22 33 12 18 1015.0 - 0.0
22/12:00pm 18.8 15.1 12.8 68 3.4 SSW 24 32 13 17 1015.3 1015.2 0.0
22/11:30am 19.1 16.0 13.3 69 3.3 SSW 22 30 12 16 1015.2 - 0.0
22/11:00am 18.4 15.5 13.0 71 3.1 SSW 20 26 11 14 1015.3 - 0.0
22/10:30am 18.2 14.8 13.7 75 2.6 SW 24 28 13 15 1015.3 - 0.0
22/10:00am 17.7 15.0 13.6 77 2.3 SSW 20 26 11 14 1015.1 - 0.0
22/09:30am 17.0 14.4 13.3 79 2.1 SW 19 26 10 14 1015.3 - 0.0
22/09:00am 15.9 14.0 13.0 83 1.6 SSW 15 20 8 11 1015.1 1015.0 1.4
22/08:30am 15.4 13.6 13.2 87 1.2 SSW 15 20 8 11 1014.8 - 1.4
22/08:00am 15.2 14.8 12.9 86 1.3 NNE 7 9 4 5 1014.3 - 1.2
22/07:30am 14.6 14.1 12.1 85 1.4 SW 6 7 3 4 1013.8 - 1.2
22/07:00am 14.7 14.3 12.4 86 1.3 SW 6 7 3 4 1013.6 - 1.2
22/06:30am 14.6 13.2 12.3 86 1.3 S 11 13 6 7 1013.3 - 1.0
22/06:00am 15.4 15.0 12.3 82 1.7 E 6 13 3 7 1012.9 1012.8 1.0
22/05:30am 16.2 15.7 12.6 79 2.0 W 7 9 4 5 1013.0 - 0.8
22/05:00am 17.1 16.6 12.0 72 2.8 NW 6 11 3 6 1012.5 - 0.8
22/04:30am 17.7 15.4 11.9 69 3.2 NNW 15 19 8 10 1012.4 - 0.6
22/04:00am 17.5 15.0 12.2 71 2.9 N 17 26 9 14 1011.8 - 0.4
22/03:30am 17.4 15.8 11.7 69 3.1 SW 11 15 6 8 1012.8 - 0.0
22/03:00am 18.3 12.3 10.7 61 4.1 WSW 33 43 18 23 1013.6 1013.4 0.0
22/02:56am 19.0 12.7 8.9 52 5.3 WSW 32 41 17 22 1013.7 - 0.0
22/02:30am 19.2 15.6 8.5 50 5.6 NNW 17 20 9 11 1012.4 - 0.0
22/02:00am 19.3 15.4 8.6 50 5.6 NW 19 24 10 13 1012.4 - 0.0
22/01:30am 19.5 16.3 8.5 49 5.8 NW 15 20 8 11 1011.8 - 0.0
22/01:00am 20.8 16.6 8.1 44 6.7 N 20 33 11 18 1011.4 - 0.0
22/12:30am 19.7 16.5 8.4 48 5.9 NNW 15 19 8 10 1012.2 - 0.0
22/12:00am 20.0 16.3 8.0 46 6.2 NNW 17 24 9 13 1012.1 1012.0 0.0
 
Date/Time
EST
Temp
°C
App
Temp
°C
Dew
Point
Rel
Hum
%
Delta-T
°C
Wind Press
QNH
hPa
Press
MSL
hPa
Rain
since 9 am
mm
Dir
 
Spd
km/h
Gust
km/h
Spd
kts
Gust
kts
21/11:30pm 20.6 16.9 7.9 44 6.6 N 17 24 9 13 1012.0 - 0.0
21/11:00pm 20.5 16.9 8.2 45 6.4 N 17 24 9 13 1012.2 - 0.0
21/10:30pm 20.4 16.7 8.1 45 6.4 N 17 24 9 13 1012.3 - 0.0
21/10:00pm 20.5 16.9 8.2 45 6.4 N 17 26 9 14 1012.3 - 0.0
21/09:30pm 20.5 16.8 7.8 44 6.6 N 17 26 9 14 1012.2 - 0.0
21/09:00pm 20.3 16.6 8.0 45 6.4 N 17 26 9 14 1012.2 1012.1 0.0
21/08:30pm 20.6 16.9 7.9 44 6.6 N 17 28 9 15 1012.1 - 0.0
21/08:00pm 21.1 17.3 7.7 42 7.0 N 17 26 9 14 1012.2 - 0.0
21/07:30pm 21.3 17.9 7.5 41 7.2 N 15 24 8 13 1012.4 - 0.0
21/07:00pm 21.8 18.3 7.2 39 7.6 N 15 22 8 12 1012.4 - 0.0
21/06:30pm 22.8 18.9 7.0 36 8.2 N 17 26 9 14 1012.3 - 0.0
21/06:00pm 23.5 19.1 6.7 34 8.7 N 19 39 10 21 1012.1 1012.0 0.0
21/05:30pm 24.1 19.8 6.8 33 9.0 N 19 32 10 17 1012.1 - 0.0
21/05:00pm 24.7 20.3 6.4 31 9.5 N 19 30 10 16 1012.1 - 0.0
21/04:30pm 25.1 20.8 6.8 31 9.6 N 19 30 10 16 1012.1 - 0.0

Other Formats:

Comma delimited format used in spreadsheet applications
http://www.bom.gov.au/fwo/IDV60801/IDV60801.94827.axf

JavaScript Object Notation format (JSON) in row-major order
http://www.bom.gov.au/fwo/IDV60801/IDV60801.94827.json